createdAt,value
2022-09-26T00:00:16.345Z,5
2022-09-26T00:01:16.460Z,5
2022-09-26T00:02:16.328Z,7
2022-09-26T00:03:16.295Z,6
2022-09-26T00:04:16.435Z,8
2022-09-26T00:05:16.425Z,6
2022-09-26T00:06:16.303Z,4
2022-09-26T00:07:16.312Z,5
2022-09-26T00:08:16.430Z,5
2022-09-26T00:09:16.421Z,5
2022-09-26T00:10:16.319Z,4
2022-09-26T00:11:16.365Z,6
2022-09-26T00:12:16.352Z,7
2022-09-26T00:13:16.357Z,6
2022-09-26T00:14:16.363Z,6
2022-09-26T00:15:16.488Z,8
2022-09-26T00:16:16.676Z,5
2022-09-26T00:17:16.398Z,6
2022-09-26T00:18:16.389Z,5
2022-09-26T00:19:16.398Z,6
2022-09-26T00:20:16.426Z,7
2022-09-26T00:21:16.410Z,8
2022-09-26T00:22:16.411Z,7
2022-09-26T00:23:16.308Z,5
2022-09-26T00:24:16.426Z,5
2022-09-26T00:25:16.468Z,6
2022-09-26T00:26:16.339Z,6
2022-09-26T00:27:16.305Z,6
2022-09-26T00:28:16.346Z,6
2022-09-26T00:29:16.559Z,5
2022-09-26T00:30:16.390Z,7
2022-09-26T00:31:16.470Z,4
2022-09-26T00:32:16.376Z,5
2022-09-26T00:33:16.383Z,5
2022-09-26T00:34:16.392Z,4
2022-09-26T00:35:16.335Z,6
2022-09-26T00:36:16.383Z,5
2022-09-26T00:37:16.297Z,5
2022-09-26T00:38:16.302Z,5
2022-09-26T00:39:16.644Z,5
2022-09-26T00:40:16.552Z,4
2022-09-26T00:41:16.311Z,6
2022-09-26T00:42:16.378Z,6
2022-09-26T00:43:16.349Z,9
2022-09-26T00:44:16.458Z,5
2022-09-26T00:45:16.379Z,5
2022-09-26T00:46:16.467Z,5
2022-09-26T00:47:16.387Z,4
2022-09-26T00:48:16.381Z,7
2022-09-26T00:49:16.311Z,7
2022-09-26T00:50:16.430Z,4
2022-09-26T00:51:16.404Z,4
2022-09-26T00:52:16.404Z,4
2022-09-26T00:53:16.418Z,5
2022-09-26T00:54:16.299Z,6
2022-09-26T00:55:16.367Z,5
2022-09-26T00:56:16.429Z,5
2022-09-26T00:57:16.361Z,4
2022-09-26T00:58:16.335Z,6
2022-09-26T00:59:16.303Z,5
2022-09-26T01:00:16.380Z,5
2022-09-26T01:01:16.454Z,6
2022-09-26T01:02:16.598Z,7
2022-09-26T01:03:16.371Z,6
2022-09-26T01:04:16.385Z,5
2022-09-26T01:05:16.406Z,7
2022-09-26T01:06:16.314Z,4
2022-09-26T01:07:16.409Z,5
2022-09-26T01:08:16.308Z,6
2022-09-26T01:09:16.302Z,6
2022-09-26T01:10:16.348Z,4
2022-09-26T01:11:17.343Z,7
2022-09-26T01:12:16.337Z,5
2022-09-26T01:13:16.443Z,5
2022-09-26T01:14:16.354Z,8
2022-09-26T01:15:16.371Z,6
2022-09-26T01:16:16.413Z,4
2022-09-26T01:17:16.308Z,6
2022-09-26T01:18:16.330Z,5
2022-09-26T01:19:16.384Z,7
2022-09-26T01:20:16.322Z,6
2022-09-26T01:21:16.310Z,5
2022-09-26T01:22:16.406Z,7
2022-09-26T01:23:16.306Z,4
2022-09-26T01:24:16.422Z,5
2022-09-26T01:25:16.438Z,4
2022-09-26T01:26:16.462Z,6
2022-09-26T01:27:16.549Z,7
2022-09-26T01:28:16.557Z,6
2022-09-26T01:29:16.353Z,4
2022-09-26T01:30:16.371Z,7
2022-09-26T01:31:16.428Z,4
2022-09-26T01:32:16.368Z,7
2022-09-26T01:33:16.330Z,4
2022-09-26T01:34:16.349Z,4
2022-09-26T01:35:16.384Z,5
2022-09-26T01:36:16.316Z,5
2022-09-26T01:37:16.718Z,5
2022-09-26T01:38:16.410Z,5
2022-09-26T01:39:16.425Z,7
2022-09-26T01:40:16.467Z,4
2022-09-26T01:41:16.362Z,3
2022-09-26T01:42:16.433Z,6
2022-09-26T01:43:16.346Z,4
2022-09-26T01:44:18.049Z,6
2022-09-26T01:45:16.375Z,4
2022-09-26T01:46:16.441Z,6
2022-09-26T01:47:16.367Z,5
2022-09-26T01:48:16.402Z,5
2022-09-26T01:49:16.337Z,5
2022-09-26T01:50:16.395Z,8
2022-09-26T01:51:16.398Z,4
2022-09-26T01:52:16.322Z,3
2022-09-26T01:53:16.400Z,5
2022-09-26T01:54:16.317Z,6
2022-09-26T01:55:16.438Z,5
2022-09-26T01:56:16.327Z,3
2022-09-26T01:57:16.326Z,4
2022-09-26T01:58:16.350Z,6
2022-09-26T01:59:16.349Z,7
2022-09-26T02:00:16.364Z,5
2022-09-26T02:01:16.485Z,7
2022-09-26T02:02:16.457Z,4
2022-09-26T02:03:16.371Z,3
2022-09-26T02:04:16.378Z,4
2022-09-26T02:05:16.401Z,3
2022-09-26T02:06:16.384Z,6
2022-09-26T02:07:16.393Z,3
2022-09-26T02:08:16.346Z,7
2022-09-26T02:09:16.403Z,4
2022-09-26T02:10:16.387Z,5
2022-09-26T02:11:16.323Z,5
2022-09-26T02:12:16.307Z,5
2022-09-26T02:13:16.364Z,3
2022-09-26T02:14:16.377Z,7
2022-09-26T02:15:16.585Z,4
2022-09-26T02:16:16.443Z,5
2022-09-26T02:17:16.369Z,5
2022-09-26T02:18:16.325Z,4
2022-09-26T02:19:16.384Z,6
2022-09-26T02:20:16.324Z,3
2022-09-26T02:21:16.391Z,5
2022-09-26T02:22:16.404Z,5
2022-09-26T02:23:16.407Z,5
2022-09-26T02:24:16.425Z,7
2022-09-26T02:25:16.606Z,2
2022-09-26T02:26:16.314Z,6
2022-09-26T02:27:16.357Z,4
2022-09-26T02:28:16.333Z,4
2022-09-26T02:29:16.430Z,4
2022-09-26T02:30:16.358Z,4
2022-09-26T02:31:16.360Z,4
2022-09-26T02:32:16.418Z,5
2022-09-26T02:33:16.369Z,3
2022-09-26T02:34:16.372Z,6
2022-09-26T02:35:16.397Z,4
2022-09-26T02:36:16.410Z,4
2022-09-26T02:37:16.417Z,5
2022-09-26T02:38:16.423Z,3
2022-09-26T02:39:16.339Z,7
2022-09-26T02:40:16.395Z,4
2022-09-26T02:41:16.450Z,4
2022-09-26T02:42:16.330Z,6
2022-09-26T02:43:16.331Z,5
2022-09-26T02:44:16.485Z,5
2022-09-26T02:45:16.471Z,5
2022-09-26T02:46:16.469Z,8
2022-09-26T02:47:16.319Z,2
2022-09-26T02:48:16.363Z,5
2022-09-26T02:49:16.304Z,7
2022-09-26T02:50:16.346Z,3
2022-09-26T02:51:16.318Z,5
2022-09-26T02:52:16.365Z,6
2022-09-26T02:53:16.350Z,4
2022-09-26T02:54:16.304Z,7
2022-09-26T02:55:16.325Z,4
2022-09-26T02:56:16.446Z,5
2022-09-26T02:57:16.320Z,4
2022-09-26T02:58:16.326Z,7
2022-09-26T02:59:16.314Z,4
2022-09-26T03:00:16.367Z,7
2022-09-26T03:01:16.382Z,4
2022-09-26T03:02:16.308Z,6
2022-09-26T03:03:16.314Z,6
2022-09-26T03:04:16.389Z,5
2022-09-26T03:05:16.325Z,5
2022-09-26T03:06:16.320Z,7
2022-09-26T03:07:16.308Z,4
2022-09-26T03:08:16.367Z,4
2022-09-26T03:09:16.325Z,4
2022-09-26T03:10:16.335Z,5
2022-09-26T03:11:16.354Z,6
2022-09-26T03:12:16.327Z,3
2022-09-26T03:13:16.304Z,4
2022-09-26T03:14:16.330Z,6
2022-09-26T03:15:16.397Z,7
2022-09-26T03:16:16.454Z,5
2022-09-26T03:17:16.333Z,4
2022-09-26T03:18:16.337Z,5
2022-09-26T03:19:16.315Z,6
2022-09-26T03:20:16.330Z,5
2022-09-26T03:21:16.316Z,5
2022-09-26T03:22:16.316Z,5
2022-09-26T03:23:16.360Z,5
2022-09-26T03:24:16.366Z,4
2022-09-26T03:25:16.335Z,4
2022-09-26T03:26:16.331Z,5
2022-09-26T03:27:16.336Z,4
2022-09-26T03:28:16.309Z,5
2022-09-26T03:29:16.339Z,3
2022-09-26T03:30:16.327Z,4
2022-09-26T03:31:16.460Z,6
2022-09-26T03:32:16.804Z,3
2022-09-26T03:33:16.320Z,5
2022-09-26T03:34:16.315Z,6
2022-09-26T03:35:16.330Z,4
2022-09-26T03:36:16.318Z,6
2022-09-26T03:37:16.318Z,7
2022-09-26T03:38:16.323Z,4
2022-09-26T03:39:16.358Z,5
2022-09-26T03:40:16.402Z,4
2022-09-26T03:41:16.330Z,5
2022-09-26T03:42:16.315Z,6
2022-09-26T03:43:16.360Z,4
2022-09-26T03:44:16.322Z,5
2022-09-26T03:45:16.340Z,4
2022-09-26T03:46:16.426Z,5
2022-09-26T03:47:16.359Z,6
2022-09-26T03:48:16.351Z,5
2022-09-26T03:49:16.319Z,4
2022-09-26T03:50:16.381Z,4
2022-09-26T03:51:16.370Z,5
2022-09-26T03:52:16.381Z,5
2022-09-26T03:53:16.309Z,5
2022-09-26T03:54:16.395Z,4
2022-09-26T03:55:16.419Z,7
2022-09-26T03:56:16.443Z,6
2022-09-26T03:57:16.403Z,6
2022-09-26T03:58:16.322Z,4
2022-09-26T03:59:16.556Z,4
2022-09-26T04:00:16.357Z,6
2022-09-26T04:01:16.496Z,4
2022-09-26T04:02:16.591Z,5
2022-09-26T04:03:16.456Z,4
2022-09-26T04:04:16.359Z,6
2022-09-26T04:05:16.351Z,8
2022-09-26T04:06:16.423Z,6
2022-09-26T04:07:16.380Z,5
2022-09-26T04:08:16.384Z,5
2022-09-26T04:09:17.313Z,6
2022-09-26T04:10:16.407Z,7
2022-09-26T04:11:16.424Z,6
2022-09-26T04:12:16.412Z,5
2022-09-26T04:13:39.805Z,8
2022-09-26T04:14:16.336Z,5
2022-09-26T04:15:16.348Z,5
2022-09-26T04:16:16.373Z,4
2022-09-26T04:17:16.335Z,4
2022-09-26T04:18:16.354Z,5
2022-09-26T04:19:16.347Z,6
2022-09-26T04:20:16.337Z,5
2022-09-26T04:21:16.321Z,5
2022-09-26T04:22:16.316Z,6
2022-09-26T04:23:16.315Z,6
2022-09-26T04:24:16.327Z,6
2022-09-26T04:25:16.386Z,5
2022-09-26T04:26:21.757Z,7
2022-09-26T04:27:16.318Z,5
2022-09-26T04:28:16.320Z,8
2022-09-26T04:29:16.493Z,8
2022-09-26T04:30:16.350Z,8
2022-09-26T04:31:16.398Z,7
2022-09-26T04:32:16.326Z,7
2022-09-26T04:33:16.362Z,7
2022-09-26T04:34:16.372Z,7
2022-09-26T04:35:16.329Z,9
2022-09-26T04:36:16.323Z,9
2022-09-26T04:37:16.323Z,8
2022-09-26T04:38:16.313Z,9
2022-09-26T04:39:16.318Z,7
2022-09-26T04:40:16.386Z,10
2022-09-26T04:41:16.381Z,7
2022-09-26T04:42:16.315Z,11
2022-09-26T04:43:16.317Z,8
2022-09-26T04:44:16.328Z,6
2022-09-26T04:45:16.365Z,6
2022-09-26T04:46:21.020Z,6
2022-09-26T04:47:16.314Z,10
2022-09-26T04:48:16.334Z,8
2022-09-26T04:49:16.352Z,7
2022-09-26T04:50:16.464Z,11
2022-09-26T04:51:16.355Z,8
2022-09-26T04:52:16.323Z,8
2022-09-26T04:53:16.305Z,7
2022-09-26T04:54:16.351Z,8
2022-09-26T04:55:16.334Z,11
2022-09-26T04:56:16.379Z,10
2022-09-26T04:57:19.681Z,9
2022-09-26T04:58:16.311Z,9
2022-09-26T04:59:16.462Z,9
2022-09-26T05:00:16.347Z,7
2022-09-26T05:01:16.422Z,8
2022-09-26T05:02:16.390Z,9
2022-09-26T05:03:16.308Z,8
2022-09-26T05:04:16.355Z,10
2022-09-26T05:05:16.384Z,10
2022-09-26T05:06:16.302Z,13
2022-09-26T05:07:16.321Z,11
2022-09-26T05:08:16.325Z,8
2022-09-26T05:09:16.316Z,10
2022-09-26T05:10:16.336Z,8
2022-09-26T05:11:16.321Z,9
2022-09-26T05:12:16.359Z,9
2022-09-26T05:13:16.322Z,8
2022-09-26T05:14:16.339Z,8
2022-09-26T05:15:16.341Z,12
2022-09-26T05:16:16.407Z,11
2022-09-26T05:17:16.439Z,13
2022-09-26T05:18:16.486Z,8
2022-09-26T05:19:16.326Z,9
2022-09-26T05:20:16.424Z,9
2022-09-26T05:21:16.333Z,9
2022-09-26T05:22:16.319Z,10
2022-09-26T05:23:16.383Z,12
2022-09-26T05:24:16.375Z,8
2022-09-26T05:25:16.407Z,9
2022-09-26T05:26:16.415Z,9
2022-09-26T05:27:16.409Z,10
2022-09-26T05:28:16.405Z,6
2022-09-26T05:29:16.415Z,9
2022-09-26T05:30:16.349Z,8
2022-09-26T05:31:16.386Z,9
2022-09-26T05:32:16.321Z,9
2022-09-26T05:33:16.333Z,9
2022-09-26T05:34:19.847Z,7
2022-09-26T05:35:16.387Z,10
2022-09-26T05:36:16.462Z,9
2022-09-26T05:37:16.370Z,8
2022-09-26T05:38:16.373Z,9
2022-09-26T05:39:16.392Z,10
2022-09-26T05:40:16.464Z,9
2022-09-26T05:41:16.416Z,7
2022-09-26T05:42:16.397Z,9
2022-09-26T05:43:16.375Z,9
2022-09-26T05:44:16.409Z,9
2022-09-26T05:45:16.420Z,7
2022-09-26T05:46:16.374Z,10
2022-09-26T05:47:16.317Z,8
2022-09-26T05:48:16.442Z,9
2022-09-26T05:49:16.344Z,8
2022-09-26T05:50:16.362Z,8
2022-09-26T05:51:16.667Z,8
2022-09-26T05:52:16.374Z,10
2022-09-26T05:53:16.367Z,9
2022-09-26T05:54:16.317Z,8
2022-09-26T05:55:16.386Z,8
2022-09-26T05:56:19.043Z,8
2022-09-26T05:57:16.309Z,8
2022-09-26T05:58:16.342Z,8
2022-09-26T05:59:16.560Z,6
2022-09-26T06:00:16.442Z,8
2022-09-26T06:01:16.433Z,9
2022-09-26T06:02:20.679Z,9
2022-09-26T06:03:16.457Z,8
2022-09-26T06:04:16.344Z,7
2022-09-26T06:05:16.374Z,7
2022-09-26T06:06:16.365Z,12
2022-09-26T06:07:16.466Z,8
2022-09-26T06:08:16.373Z,8
2022-09-26T06:09:16.582Z,7
2022-09-26T06:10:16.448Z,12
2022-09-26T06:11:16.397Z,11
2022-09-26T06:12:16.314Z,6
2022-09-26T06:13:16.403Z,6
2022-09-26T06:14:16.358Z,8
2022-09-26T06:15:16.453Z,7
2022-09-26T06:16:16.444Z,7
2022-09-26T06:17:16.447Z,8
2022-09-26T06:18:16.329Z,7
2022-09-26T06:19:20.612Z,7
2022-09-26T06:20:16.319Z,11
2022-09-26T06:21:16.349Z,12
2022-09-26T06:22:16.462Z,10
2022-09-26T06:23:16.384Z,7
2022-09-26T06:24:16.367Z,8
2022-09-26T06:25:16.331Z,9
2022-09-26T06:26:16.330Z,7
2022-09-26T06:27:16.308Z,9
2022-09-26T06:28:16.408Z,10
2022-09-26T06:29:16.399Z,8
2022-09-26T06:30:16.423Z,7
2022-09-26T06:31:16.505Z,9
2022-09-26T06:32:16.427Z,7
2022-09-26T06:33:16.419Z,6
2022-09-26T06:34:16.366Z,6
2022-09-26T06:35:16.365Z,10
2022-09-26T06:36:16.313Z,7
2022-09-26T06:37:16.352Z,7
2022-09-26T06:38:16.468Z,6
2022-09-26T06:39:16.588Z,6
2022-09-26T06:40:16.442Z,7
2022-09-26T06:41:16.560Z,6
2022-09-26T06:42:16.416Z,7
2022-09-26T06:43:16.415Z,6
2022-09-26T06:44:16.407Z,5
2022-09-26T06:45:16.395Z,5
2022-09-26T06:46:16.573Z,7
2022-09-26T06:47:16.559Z,6
2022-09-26T06:48:18.939Z,6
2022-09-26T06:49:16.461Z,7
2022-09-26T06:50:16.327Z,5
2022-09-26T06:51:16.340Z,6
2022-09-26T06:52:16.352Z,5
2022-09-26T06:53:16.362Z,6
2022-09-26T06:54:16.380Z,6
2022-09-26T06:55:16.388Z,6
2022-09-26T06:56:16.396Z,8
2022-09-26T06:57:16.389Z,6
2022-09-26T06:58:16.393Z,7
2022-09-26T06:59:16.501Z,6
2022-09-26T07:00:16.336Z,6
2022-09-26T07:01:16.739Z,6
2022-09-26T07:02:16.508Z,6
2022-09-26T07:03:16.430Z,7
2022-09-26T07:04:16.431Z,5
2022-09-26T07:05:16.607Z,5
2022-09-26T07:06:16.358Z,4
2022-09-26T07:07:16.326Z,5
2022-09-26T07:08:16.329Z,10
2022-09-26T07:09:16.890Z,5
2022-09-26T07:10:16.336Z,6
2022-09-26T07:11:35.202Z,6
2022-09-26T07:12:16.467Z,5
2022-09-26T07:13:16.342Z,5
2022-09-26T07:14:16.396Z,6
2022-09-26T07:15:16.418Z,4
2022-09-26T07:16:16.503Z,6
2022-09-26T07:17:16.380Z,5
2022-09-26T07:18:16.428Z,6
2022-09-26T07:19:16.352Z,6
2022-09-26T07:20:16.336Z,4
2022-09-26T07:21:16.316Z,7
2022-09-26T07:22:16.377Z,5
2022-09-26T07:23:16.369Z,5
2022-09-26T07:24:16.372Z,7
2022-09-26T07:25:16.409Z,5
2022-09-26T07:26:16.389Z,6
2022-09-26T07:27:16.382Z,5
2022-09-26T07:28:16.384Z,8
2022-09-26T07:29:16.546Z,6
2022-09-26T07:30:16.419Z,5
2022-09-26T07:31:16.390Z,4
2022-09-26T07:32:16.420Z,5
2022-09-26T07:33:16.440Z,7
2022-09-26T07:34:18.529Z,4
2022-09-26T07:35:16.344Z,6
2022-09-26T07:36:16.318Z,6
2022-09-26T07:37:16.314Z,7
2022-09-26T07:38:16.357Z,3
2022-09-26T07:39:16.594Z,5
2022-09-26T07:40:16.519Z,4
2022-09-26T07:41:16.488Z,8
2022-09-26T07:42:16.383Z,5
2022-09-26T07:43:19.963Z,5
2022-09-26T07:45:02.310Z,4
2022-09-26T07:45:27.932Z,5
2022-09-26T07:46:16.403Z,5
2022-09-26T07:47:16.333Z,4
2022-09-26T07:48:16.379Z,4
2022-09-26T07:49:16.416Z,7
2022-09-26T07:50:16.363Z,4
2022-09-26T07:51:16.341Z,6
2022-09-26T07:52:16.342Z,5
2022-09-26T07:53:16.367Z,6
2022-09-26T07:54:16.427Z,5
2022-09-26T07:55:16.406Z,5
2022-09-26T07:56:16.405Z,4
2022-09-26T07:57:16.373Z,5
2022-09-26T07:58:16.319Z,7
2022-09-26T07:59:16.389Z,4
2022-09-26T08:00:16.396Z,9
2022-09-26T08:01:16.414Z,5
2022-09-26T08:02:16.554Z,5
2022-09-26T08:03:16.515Z,5
2022-09-26T08:04:16.423Z,5
2022-09-26T08:05:16.440Z,5
2022-09-26T08:06:16.320Z,5
2022-09-26T08:07:16.343Z,4
2022-09-26T08:08:16.359Z,6
2022-09-26T08:09:16.653Z,4
2022-09-26T08:10:16.398Z,5
2022-09-26T08:11:16.493Z,5
2022-09-26T08:12:16.373Z,4
2022-09-26T08:13:16.332Z,3
2022-09-26T08:14:16.460Z,4
2022-09-26T08:15:16.419Z,7
2022-09-26T08:16:16.542Z,5
2022-09-26T08:17:16.423Z,4
2022-09-26T08:18:16.410Z,3
2022-09-26T08:19:16.363Z,6
2022-09-26T08:20:16.443Z,6
2022-09-26T08:21:16.336Z,5
2022-09-26T08:22:16.341Z,3
2022-09-26T08:23:16.365Z,4
2022-09-26T08:24:16.551Z,6
2022-09-26T08:25:16.379Z,4
2022-09-26T08:26:16.496Z,5
2022-09-26T08:27:16.388Z,4
2022-09-26T08:28:16.326Z,4
2022-09-26T08:29:16.330Z,4
2022-09-26T08:30:16.436Z,6
2022-09-26T08:31:16.413Z,4
2022-09-26T08:32:16.410Z,4
2022-09-26T08:33:16.419Z,3
2022-09-26T08:34:18.384Z,3
2022-09-26T08:35:16.445Z,3
2022-09-26T08:36:16.434Z,4
2022-09-26T08:37:16.333Z,4
2022-09-26T08:38:16.345Z,4
2022-09-26T08:39:16.427Z,5
2022-09-26T08:40:16.485Z,4
2022-09-26T08:41:16.351Z,4
2022-09-26T08:42:16.379Z,2
2022-09-26T08:43:16.391Z,3
2022-09-26T08:44:16.594Z,4
2022-09-26T08:45:16.402Z,5
2022-09-26T08:46:16.451Z,4
2022-09-26T08:47:16.322Z,4
2022-09-26T08:48:16.319Z,6
2022-09-26T08:49:16.423Z,5
2022-09-26T08:50:16.379Z,4
2022-09-26T08:51:16.316Z,4
2022-09-26T08:52:16.366Z,3
2022-09-26T08:53:16.336Z,6
2022-09-26T08:54:16.427Z,3
2022-09-26T08:55:16.352Z,6
2022-09-26T08:56:16.331Z,3
2022-09-26T08:57:16.462Z,3
2022-09-26T08:58:16.406Z,5
2022-09-26T08:59:16.386Z,5
2022-09-26T09:00:16.448Z,2
2022-09-26T09:01:16.373Z,4
2022-09-26T09:02:16.550Z,3
2022-09-26T09:03:16.561Z,4
2022-09-26T09:04:16.568Z,3
2022-09-26T09:05:16.407Z,5
2022-09-26T09:06:16.361Z,3
2022-09-26T09:07:16.434Z,3
2022-09-26T09:08:16.410Z,5
2022-09-26T09:09:16.342Z,3
2022-09-26T09:10:16.357Z,4
2022-09-26T09:11:16.388Z,4
2022-09-26T09:12:19.503Z,4
2022-09-26T09:13:16.371Z,3
2022-09-26T09:14:16.516Z,3
2022-09-26T09:15:31.736Z,3
2022-09-26T09:16:16.514Z,4
2022-09-26T09:17:16.398Z,4
2022-09-26T09:18:16.322Z,3
2022-09-26T09:19:16.409Z,2
2022-09-26T09:20:16.430Z,4
2022-09-26T09:21:16.366Z,5
2022-09-26T09:22:16.328Z,4
2022-09-26T09:23:16.348Z,6
2022-09-26T09:24:16.350Z,3
2022-09-26T09:25:16.360Z,5
2022-09-26T09:28:16.374Z,4
2022-09-26T09:29:19.242Z,2
2022-09-26T09:30:17.401Z,2
2022-09-26T09:31:16.458Z,2
2022-09-26T09:32:16.407Z,2
2022-09-26T09:33:16.398Z,5
2022-09-26T09:34:16.533Z,5
2022-09-26T09:35:16.565Z,2
2022-09-26T09:36:16.432Z,5
2022-09-26T09:37:16.502Z,4
2022-09-26T09:38:16.434Z,3
2022-09-26T09:39:16.602Z,2
2022-09-26T09:40:16.852Z,4
2022-09-26T09:41:16.689Z,4
2022-09-26T09:42:16.544Z,3
2022-09-26T09:43:16.370Z,5
2022-09-26T09:44:16.715Z,5
2022-09-26T09:45:16.387Z,5
2022-09-26T09:46:16.402Z,3
2022-09-26T09:47:16.399Z,3
2022-09-26T09:48:16.354Z,4
2022-09-26T09:49:16.327Z,4
2022-09-26T09:50:16.497Z,3
2022-09-26T09:51:16.338Z,4
2022-09-26T09:52:16.361Z,2
2022-09-26T09:53:16.424Z,3
2022-09-26T09:54:16.439Z,4
2022-09-26T09:55:16.336Z,4
2022-09-26T09:56:16.370Z,4
2022-09-26T09:57:16.329Z,4
2022-09-26T09:58:16.363Z,6
2022-09-26T09:59:16.482Z,4
2022-09-26T10:00:16.543Z,4
2022-09-26T10:01:16.329Z,3
2022-09-26T10:02:16.320Z,3
2022-09-26T10:03:16.421Z,5
2022-09-26T10:04:16.405Z,4
2022-09-26T10:05:16.344Z,3
2022-09-26T10:06:45.443Z,3
2022-09-26T10:07:16.419Z,3
2022-09-26T10:08:16.430Z,4
2022-09-26T10:09:35.571Z,3
2022-09-26T10:10:16.465Z,3
2022-09-26T10:11:16.369Z,4
2022-09-26T10:12:16.349Z,3
2022-09-26T10:13:16.369Z,4
2022-09-26T10:14:16.491Z,4
2022-09-26T10:15:16.389Z,3
2022-09-26T10:16:16.407Z,3
2022-09-26T10:17:16.385Z,4
2022-09-26T10:18:25.607Z,6
2022-09-26T10:19:16.396Z,6
2022-09-26T10:20:16.429Z,3
2022-09-26T10:21:16.507Z,3
2022-09-26T10:22:16.419Z,3
2022-09-26T10:23:16.431Z,3
2022-09-26T10:24:16.332Z,3
2022-09-26T10:25:16.364Z,4
2022-09-26T10:26:16.359Z,4
2022-09-26T10:27:16.349Z,4
2022-09-26T10:28:16.328Z,5
2022-09-26T10:29:16.314Z,6
2022-09-26T10:30:16.482Z,4
2022-09-26T10:31:16.598Z,4
2022-09-26T10:32:16.382Z,5
2022-09-26T10:33:16.387Z,5
2022-09-26T10:34:16.394Z,3
2022-09-26T10:35:19.563Z,3
2022-09-26T10:36:16.334Z,4
2022-09-26T10:37:16.336Z,4
2022-09-26T10:38:16.431Z,3
2022-09-26T10:39:16.443Z,6
2022-09-26T10:40:16.588Z,3
2022-09-26T10:41:16.366Z,6
2022-09-26T10:42:16.334Z,4
2022-09-26T10:43:16.354Z,3
2022-09-26T10:44:16.374Z,4
2022-09-26T10:45:16.383Z,3
2022-09-26T10:46:16.477Z,4
2022-09-26T10:47:16.383Z,3
2022-09-26T10:48:16.384Z,3
2022-09-26T10:49:16.399Z,4
2022-09-26T10:50:16.422Z,3
2022-09-26T10:51:16.412Z,3
2022-09-26T10:52:18.834Z,4
2022-09-26T10:53:16.427Z,5
2022-09-26T10:54:16.703Z,5
2022-09-26T10:55:16.356Z,5
2022-09-26T10:56:16.356Z,4
2022-09-26T10:57:16.346Z,5
2022-09-26T10:58:16.344Z,4
2022-09-26T10:59:16.362Z,6
2022-09-26T11:00:16.470Z,3
2022-09-26T11:01:16.399Z,4
2022-09-26T11:02:16.508Z,3
2022-09-26T11:03:16.468Z,4
2022-09-26T11:04:16.511Z,3
2022-09-26T11:05:16.421Z,4
2022-09-26T11:06:20.525Z,3
2022-09-26T11:07:16.411Z,5
2022-09-26T11:08:16.424Z,5
2022-09-26T11:09:16.367Z,5
2022-09-26T11:10:16.379Z,4
2022-09-26T11:11:16.353Z,6
2022-09-26T11:12:16.472Z,4
2022-09-26T11:13:16.353Z,6
2022-09-26T11:14:16.372Z,4
2022-09-26T11:15:16.336Z,4
2022-09-26T11:16:16.496Z,10
2022-09-26T11:17:16.372Z,7
2022-09-26T11:18:16.364Z,5
2022-09-26T11:19:16.318Z,5
2022-09-26T11:20:16.366Z,4
2022-09-26T11:21:28.257Z,4
2022-09-26T11:22:16.345Z,4
2022-09-26T11:23:16.342Z,4
2022-09-26T11:24:16.457Z,3
2022-09-26T11:25:16.369Z,4
2022-09-26T11:26:16.390Z,3
2022-09-26T11:27:16.357Z,4
2022-09-26T11:28:16.315Z,4
2022-09-26T11:29:16.526Z,4
2022-09-26T11:30:16.327Z,3
2022-09-26T11:31:16.417Z,4
2022-09-26T11:32:16.334Z,3
2022-09-26T11:33:16.408Z,3
2022-09-26T11:34:16.343Z,4
2022-09-26T11:35:16.341Z,3
2022-09-26T11:36:16.338Z,4
2022-09-26T11:37:16.326Z,4
2022-09-26T11:38:16.321Z,4
2022-09-26T11:39:16.385Z,3
2022-09-26T11:40:16.416Z,3
2022-09-26T11:41:16.380Z,3
2022-09-26T11:42:16.354Z,5
2022-09-26T11:43:16.345Z,5
2022-09-26T11:44:16.347Z,2
2022-09-26T11:45:16.334Z,4
2022-09-26T11:46:16.405Z,4
2022-09-26T11:47:16.329Z,4
2022-09-26T11:48:16.378Z,3
2022-09-26T11:49:16.374Z,3
2022-09-26T11:50:16.330Z,3
2022-09-26T11:51:16.449Z,4
2022-09-26T11:52:16.327Z,4
2022-09-26T11:53:16.325Z,3
2022-09-26T11:54:16.345Z,5
2022-09-26T11:55:16.357Z,5
2022-09-26T11:56:16.403Z,4
2022-09-26T11:57:16.405Z,3
2022-09-26T11:58:16.335Z,4
2022-09-26T11:59:16.340Z,4
2022-09-26T12:00:16.351Z,5
2022-09-26T12:01:16.345Z,3
2022-09-26T12:02:16.410Z,3
2022-09-26T12:03:16.410Z,4
2022-09-26T12:04:16.831Z,4
2022-09-26T12:05:16.375Z,4
2022-09-26T12:06:16.343Z,6
2022-09-26T12:07:16.328Z,4
2022-09-26T12:08:16.359Z,4
2022-09-26T12:09:16.331Z,3
2022-09-26T12:10:16.347Z,4
2022-09-26T12:11:16.323Z,3
2022-09-26T12:12:16.476Z,5
2022-09-26T12:13:16.335Z,4
2022-09-26T12:14:16.430Z,2
2022-09-26T12:15:16.324Z,4
2022-09-26T12:16:16.413Z,4
2022-09-26T12:17:16.326Z,3
2022-09-26T12:18:16.333Z,3
2022-09-26T12:19:16.835Z,3
2022-09-26T12:20:16.391Z,6
2022-09-26T12:21:16.363Z,3
2022-09-26T12:22:16.328Z,4
2022-09-26T12:23:16.333Z,4
2022-09-26T12:24:16.334Z,2
2022-09-26T12:25:20.000Z,3
2022-09-26T12:26:16.346Z,4
2022-09-26T12:27:16.397Z,4
2022-09-26T12:28:16.387Z,4
2022-09-26T12:29:16.329Z,4
2022-09-26T12:30:16.398Z,4
2022-09-26T12:31:19.638Z,2
2022-09-26T12:32:16.343Z,4
2022-09-26T12:33:16.327Z,3
2022-09-26T12:34:16.331Z,2
2022-09-26T12:35:16.430Z,3
2022-09-26T12:36:16.402Z,2
2022-09-26T12:37:16.331Z,3
2022-09-26T12:38:16.340Z,3
2022-09-26T12:39:16.328Z,4
2022-09-26T12:40:16.359Z,1
2022-09-26T12:41:16.343Z,4
2022-09-26T12:42:16.346Z,6
2022-09-26T12:43:16.402Z,3
2022-09-26T12:44:16.366Z,4
2022-09-26T12:45:16.343Z,5
2022-09-26T12:46:16.458Z,2
2022-09-26T12:47:16.339Z,3
2022-09-26T12:48:16.341Z,3
2022-09-26T12:49:16.509Z,3
2022-09-26T12:50:16.334Z,3
2022-09-26T12:51:16.406Z,3
2022-09-26T12:52:16.337Z,2
2022-09-26T12:53:16.339Z,4
2022-09-26T12:54:16.334Z,2
2022-09-26T12:55:16.327Z,2
2022-09-26T12:56:16.343Z,3
2022-09-26T12:57:16.380Z,3
2022-09-26T12:58:16.360Z,3
2022-09-26T12:59:16.411Z,3
2022-09-26T13:00:16.348Z,4
2022-09-26T13:01:16.382Z,4
2022-09-26T13:02:16.377Z,2
2022-09-26T13:03:16.428Z,2
2022-09-26T13:04:16.353Z,2
2022-09-26T13:05:16.337Z,8
2022-09-26T13:06:16.426Z,3
2022-09-26T13:07:20.423Z,4
2022-09-26T13:08:16.335Z,6
2022-09-26T13:09:16.391Z,4
2022-09-26T13:10:16.338Z,2
2022-09-26T13:11:16.336Z,4
2022-09-26T13:12:16.349Z,7
2022-09-26T13:13:16.336Z,4
2022-09-26T13:14:16.380Z,5
2022-09-26T13:15:16.373Z,3
2022-09-26T13:16:16.402Z,5
2022-09-26T13:17:16.345Z,4
2022-09-26T13:18:16.325Z,3
2022-09-26T13:19:16.329Z,4
2022-09-26T13:20:16.406Z,5
2022-09-26T13:21:16.357Z,2
2022-09-26T13:22:16.383Z,6
2022-09-26T13:23:16.367Z,4
2022-09-26T13:24:16.336Z,3
2022-09-26T13:25:18.804Z,4
2022-09-26T13:26:16.368Z,3
2022-09-26T13:27:16.345Z,5
2022-09-26T13:28:16.332Z,4
2022-09-26T13:29:17.928Z,3
2022-09-26T13:30:16.380Z,4
2022-09-26T13:31:16.439Z,3
2022-09-26T13:32:16.348Z,3
2022-09-26T13:33:16.331Z,3
2022-09-26T13:34:16.325Z,4
2022-09-26T13:35:16.334Z,4
2022-09-26T13:36:16.345Z,2
2022-09-26T13:37:16.383Z,4
2022-09-26T13:38:16.372Z,3
2022-09-26T13:39:16.337Z,3
2022-09-26T13:40:16.350Z,3
2022-09-26T13:41:16.345Z,3
2022-09-26T13:42:16.344Z,3
2022-09-26T13:43:19.327Z,3
2022-09-26T13:44:16.464Z,3
2022-09-26T13:45:16.383Z,1
2022-09-26T13:46:16.489Z,3
2022-09-26T13:47:16.345Z,5
2022-09-26T13:48:16.448Z,3
2022-09-26T13:49:16.327Z,4
2022-09-26T13:50:16.335Z,5
2022-09-26T13:51:16.336Z,3
2022-09-26T13:52:16.344Z,5
2022-09-26T13:53:16.375Z,3
2022-09-26T13:54:16.375Z,3
2022-09-26T13:55:16.339Z,3
2022-09-26T13:56:16.337Z,2
2022-09-26T13:57:16.362Z,4
2022-09-26T13:58:16.335Z,3
2022-09-26T13:59:16.337Z,3
2022-09-26T14:00:16.345Z,4
2022-09-26T14:01:16.449Z,3
2022-09-26T14:02:16.462Z,3
2022-09-26T14:03:16.512Z,3
2022-09-26T14:04:16.362Z,4
2022-09-26T14:05:16.364Z,4
2022-09-26T14:06:16.347Z,2
2022-09-26T14:07:16.336Z,2
2022-09-26T14:08:16.386Z,2
2022-09-26T14:09:16.384Z,3
2022-09-26T14:10:16.352Z,3
2022-09-26T14:11:16.337Z,4
2022-09-26T14:12:16.359Z,4
2022-09-26T14:13:16.408Z,4
2022-09-26T14:14:16.593Z,5
2022-09-26T14:15:16.355Z,3
2022-09-26T14:16:16.428Z,4
2022-09-26T14:17:20.134Z,5
2022-09-26T14:18:16.332Z,3
2022-09-26T14:19:16.380Z,6
2022-09-26T14:20:16.339Z,5
2022-09-26T14:21:16.356Z,2
2022-09-26T14:22:16.347Z,4
2022-09-26T14:23:16.334Z,4
2022-09-26T14:24:16.497Z,4
2022-09-26T14:25:16.373Z,5
2022-09-26T14:26:16.354Z,3
2022-09-26T14:27:16.353Z,7
2022-09-26T14:28:16.347Z,5
2022-09-26T14:29:16.336Z,6
2022-09-26T14:30:16.364Z,5
2022-09-26T14:31:16.396Z,6
2022-09-26T14:32:16.395Z,5
2022-09-26T14:33:16.370Z,4
2022-09-26T14:34:16.590Z,4
2022-09-26T14:35:16.359Z,4
2022-09-26T14:36:16.354Z,4
2022-09-26T14:37:16.344Z,4
2022-09-26T14:38:16.348Z,4
2022-09-26T14:39:18.311Z,4
2022-09-26T14:40:16.717Z,6
2022-09-26T14:41:16.662Z,4
2022-09-26T14:42:16.538Z,6
2022-09-26T14:43:16.540Z,4
2022-09-26T14:44:16.709Z,6
2022-09-26T14:45:16.682Z,4
2022-09-26T14:46:16.478Z,5
2022-09-26T14:47:16.362Z,5
2022-09-26T14:48:16.372Z,5